sensor_id;sensor_type;location;lat;lon;timestamp;P1;durP1;ratioP1;P2;durP2;ratioP2
20080;SDS011;10200;49.232;9.222;2023-05-02T00:00:28;7.73;;;5.40;;
20080;SDS011;10200;49.232;9.222;2023-05-02T00:02:56;6.10;;;4.83;;
20080;SDS011;10200;49.232;9.222;2023-05-02T00:05:22;7.17;;;5.77;;
20080;SDS011;10200;49.232;9.222;2023-05-02T00:07:48;6.57;;;5.30;;
20080;SDS011;10200;49.232;9.222;2023-05-02T00:10:14;6.30;;;5.60;;
20080;SDS011;10200;49.232;9.222;2023-05-02T00:12:39;6.50;;;5.87;;
20080;SDS011;10200;49.232;9.222;2023-05-02T00:15:05;9.70;;;6.57;;
20080;SDS011;10200;49.232;9.222;2023-05-02T00:17:31;5.93;;;5.30;;
20080;SDS011;10200;49.232;9.222;2023-05-02T00:19:57;8.03;;;6.27;;
20080;SDS011;10200;49.232;9.222;2023-05-02T00:22:23;10.07;;;5.77;;
20080;SDS011;10200;49.232;9.222;2023-05-02T00:24:49;6.63;;;5.47;;
20080;SDS011;10200;49.232;9.222;2023-05-02T00:27:15;7.70;;;5.93;;
20080;SDS011;10200;49.232;9.222;2023-05-02T00:29:41;7.43;;;5.70;;
20080;SDS011;10200;49.232;9.222;2023-05-02T00:32:06;5.60;;;5.00;;
20080;SDS011;10200;49.232;9.222;2023-05-02T00:34:32;6.73;;;6.03;;
20080;SDS011;10200;49.232;9.222;2023-05-02T00:36:58;6.97;;;5.87;;
20080;SDS011;10200;49.232;9.222;2023-05-02T00:39:23;7.47;;;5.40;;
20080;SDS011;10200;49.232;9.222;2023-05-02T00:41:55;10.27;;;5.87;;
20080;SDS011;10200;49.232;9.222;2023-05-02T00:44:22;5.90;;;5.30;;
20080;SDS011;10200;49.232;9.222;2023-05-02T00:46:47;7.10;;;6.10;;
20080;SDS011;10200;49.232;9.222;2023-05-02T00:49:13;7.23;;;6.27;;
20080;SDS011;10200;49.232;9.222;2023-05-02T00:51:38;7.53;;;5.87;;
20080;SDS011;10200;49.232;9.222;2023-05-02T00:54:04;7.77;;;6.10;;
20080;SDS011;10200;49.232;9.222;2023-05-02T00:56:30;6.77;;;5.93;;
20080;SDS011;10200;49.232;9.222;2023-05-02T00:58:55;8.87;;;6.10;;
20080;SDS011;10200;49.232;9.222;2023-05-02T01:04:11;8.70;;;5.43;;
20080;SDS011;10200;49.232;9.222;2023-05-02T01:07:08;6.87;;;5.90;;
20080;SDS011;10200;49.232;9.222;2023-05-02T01:10:02;5.77;;;5.17;;
20080;SDS011;10200;49.232;9.222;2023-05-02T01:12:53;6.90;;;5.63;;
20080;SDS011;10200;49.232;9.222;2023-05-02T01:15:20;6.73;;;5.13;;
20080;SDS011;10200;49.232;9.222;2023-05-02T01:17:47;6.10;;;5.50;;
20080;SDS011;10200;49.232;9.222;2023-05-02T01:20:19;7.10;;;5.73;;
20080;SDS011;10200;49.232;9.222;2023-05-02T01:22:47;9.80;;;6.80;;
20080;SDS011;10200;49.232;9.222;2023-05-02T01:27:48;8.43;;;5.43;;
20080;SDS011;10200;49.232;9.222;2023-05-02T01:30:16;7.47;;;5.60;;
20080;SDS011;10200;49.232;9.222;2023-05-02T01:32:45;5.87;;;5.27;;
20080;SDS011;10200;49.232;9.222;2023-05-02T01:35:15;6.00;;;5.03;;
20080;SDS011;10200;49.232;9.222;2023-05-02T01:37:43;7.97;;;6.10;;
20080;SDS011;10200;49.232;9.222;2023-05-02T01:40:10;5.30;;;4.80;;
20080;SDS011;10200;49.232;9.222;2023-05-02T01:42:37;6.73;;;5.33;;
20080;SDS011;10200;49.232;9.222;2023-05-02T01:45:04;7.93;;;5.70;;
20080;SDS011;10200;49.232;9.222;2023-05-02T01:47:32;6.90;;;5.83;;
20080;SDS011;10200;49.232;9.222;2023-05-02T01:50:02;8.60;;;6.27;;
20080;SDS011;10200;49.232;9.222;2023-05-02T01:52:30;6.60;;;5.87;;
20080;SDS011;10200;49.232;9.222;2023-05-02T01:54:57;6.37;;;5.43;;
20080;SDS011;10200;49.232;9.222;2023-05-02T01:57:24;8.03;;;6.53;;
20080;SDS011;10200;49.232;9.222;2023-05-02T01:59:51;7.43;;;6.43;;
20080;SDS011;10200;49.232;9.222;2023-05-02T02:02:21;7.63;;;6.53;;
20080;SDS011;10200;49.232;9.222;2023-05-02T02:04:51;7.97;;;5.80;;
20080;SDS011;10200;49.232;9.222;2023-05-02T02:07:19;7.13;;;6.43;;
20080;SDS011;10200;49.232;9.222;2023-05-02T02:09:44;8.27;;;6.50;;
20080;SDS011;10200;49.232;9.222;2023-05-02T02:12:11;7.57;;;6.43;;
20080;SDS011;10200;49.232;9.222;2023-05-02T02:14:41;9.50;;;6.80;;
20080;SDS011;10200;49.232;9.222;2023-05-02T02:17:21;9.47;;;6.37;;
20080;SDS011;10200;49.232;9.222;2023-05-02T02:19:51;13.10;;;7.17;;
20080;SDS011;10200;49.232;9.222;2023-05-02T02:22:18;7.27;;;6.30;;
20080;SDS011;10200;49.232;9.222;2023-05-02T02:24:45;8.17;;;6.90;;
20080;SDS011;10200;49.232;9.222;2023-05-02T02:27:12;9.43;;;6.83;;
20080;SDS011;10200;49.232;9.222;2023-05-02T02:29:38;12.20;;;6.60;;
20080;SDS011;10200;49.232;9.222;2023-05-02T02:32:04;8.10;;;6.40;;
20080;SDS011;10200;49.232;9.222;2023-05-02T02:34:29;8.53;;;5.70;;
20080;SDS011;10200;49.232;9.222;2023-05-02T02:37:10;8.27;;;5.73;;
20080;SDS011;10200;49.232;9.222;2023-05-02T02:40:02;8.00;;;5.33;;
20080;SDS011;10200;49.232;9.222;2023-05-02T02:45:34;6.90;;;5.80;;
20080;SDS011;10200;49.232;9.222;2023-05-02T02:51:07;9.57;;;6.47;;
20080;SDS011;10200;49.232;9.222;2023-05-02T02:56:16;9.63;;;5.87;;
20080;SDS011;10200;49.232;9.222;2023-05-02T03:01:39;7.20;;;5.53;;
20080;SDS011;10200;49.232;9.222;2023-05-02T03:04:10;5.93;;;5.33;;
20080;SDS011;10200;49.232;9.222;2023-05-02T03:06:37;8.33;;;5.30;;
20080;SDS011;10200;49.232;9.222;2023-05-02T03:09:03;7.27;;;5.63;;
20080;SDS011;10200;49.232;9.222;2023-05-02T03:11:29;6.60;;;5.77;;
20080;SDS011;10200;49.232;9.222;2023-05-02T03:13:54;8.37;;;6.07;;
20080;SDS011;10200;49.232;9.222;2023-05-02T03:16:39;7.50;;;5.60;;
20080;SDS011;10200;49.232;9.222;2023-05-02T03:19:05;7.23;;;6.33;;
20080;SDS011;10200;49.232;9.222;2023-05-02T03:21:32;7.23;;;5.87;;
20080;SDS011;10200;49.232;9.222;2023-05-02T03:24:02;6.47;;;5.37;;
20080;SDS011;10200;49.232;9.222;2023-05-02T03:26:28;7.73;;;5.40;;
20080;SDS011;10200;49.232;9.222;2023-05-02T03:28:55;6.07;;;5.47;;
20080;SDS011;10200;49.232;9.222;2023-05-02T03:31:21;6.67;;;5.33;;
20080;SDS011;10200;49.232;9.222;2023-05-02T03:33:47;7.63;;;5.87;;
20080;SDS011;10200;49.232;9.222;2023-05-02T03:36:13;6.93;;;5.70;;
20080;SDS011;10200;49.232;9.222;2023-05-02T03:38:39;5.70;;;5.20;;
20080;SDS011;10200;49.232;9.222;2023-05-02T03:41:05;7.57;;;5.83;;
20080;SDS011;10200;49.232;9.222;2023-05-02T03:43:30;6.43;;;5.30;;
20080;SDS011;10200;49.232;9.222;2023-05-02T03:45:56;7.07;;;5.73;;
20080;SDS011;10200;49.232;9.222;2023-05-02T03:48:22;7.50;;;5.50;;
20080;SDS011;10200;49.232;9.222;2023-05-02T03:50:48;5.80;;;5.10;;
20080;SDS011;10200;49.232;9.222;2023-05-02T03:53:14;6.83;;;5.77;;
20080;SDS011;10200;49.232;9.222;2023-05-02T03:55:40;6.30;;;5.53;;
20080;SDS011;10200;49.232;9.222;2023-05-02T03:58:06;6.67;;;5.73;;
20080;SDS011;10200;49.232;9.222;2023-05-02T04:00:32;6.97;;;5.73;;
20080;SDS011;10200;49.232;9.222;2023-05-02T04:03:01;7.33;;;6.50;;
20080;SDS011;10200;49.232;9.222;2023-05-02T04:05:27;6.43;;;5.80;;
20080;SDS011;10200;49.232;9.222;2023-05-02T04:07:53;6.70;;;5.57;;
20080;SDS011;10200;49.232;9.222;2023-05-02T04:10:22;6.33;;;5.47;;
20080;SDS011;10200;49.232;9.222;2023-05-02T04:12:48;6.57;;;5.47;;
20080;SDS011;10200;49.232;9.222;2023-05-02T04:15:13;7.40;;;6.60;;
20080;SDS011;10200;49.232;9.222;2023-05-02T04:17:39;6.37;;;5.20;;
20080;SDS011;10200;49.232;9.222;2023-05-02T04:20:05;5.83;;;5.23;;
20080;SDS011;10200;49.232;9.222;2023-05-02T04:22:31;7.27;;;6.13;;
20080;SDS011;10200;49.232;9.222;2023-05-02T04:24:57;7.30;;;5.47;;
20080;SDS011;10200;49.232;9.222;2023-05-02T04:27:23;7.60;;;5.57;;
20080;SDS011;10200;49.232;9.222;2023-05-02T04:29:49;7.10;;;5.83;;
20080;SDS011;10200;49.232;9.222;2023-05-02T04:32:15;5.77;;;5.17;;
20080;SDS011;10200;49.232;9.222;2023-05-02T04:34:41;9.07;;;6.23;;
20080;SDS011;10200;49.232;9.222;2023-05-02T04:37:07;6.80;;;5.40;;
20080;SDS011;10200;49.232;9.222;2023-05-02T04:39:33;8.53;;;5.50;;
20080;SDS011;10200;49.232;9.222;2023-05-02T04:41:59;8.83;;;6.40;;
20080;SDS011;10200;49.232;9.222;2023-05-02T04:44:25;6.70;;;5.70;;
20080;SDS011;10200;49.232;9.222;2023-05-02T04:46:51;6.30;;;5.70;;
20080;SDS011;10200;49.232;9.222;2023-05-02T04:49:16;6.63;;;5.50;;
20080;SDS011;10200;49.232;9.222;2023-05-02T04:51:42;6.80;;;5.77;;
20080;SDS011;10200;49.232;9.222;2023-05-02T04:54:08;17.70;;;5.70;;
20080;SDS011;10200;49.232;9.222;2023-05-02T04:56:34;6.50;;;5.67;;
20080;SDS011;10200;49.232;9.222;2023-05-02T04:59:00;6.40;;;5.50;;
20080;SDS011;10200;49.232;9.222;2023-05-02T05:01:25;6.53;;;5.83;;
20080;SDS011;10200;49.232;9.222;2023-05-02T05:03:54;6.43;;;5.37;;
20080;SDS011;10200;49.232;9.222;2023-05-02T05:06:20;10.90;;;6.10;;
20080;SDS011;10200;49.232;9.222;2023-05-02T05:08:46;6.70;;;5.97;;
20080;SDS011;10200;49.232;9.222;2023-05-02T05:11:12;6.77;;;5.60;;
20080;SDS011;10200;49.232;9.222;2023-05-02T05:13:38;6.70;;;5.67;;
20080;SDS011;10200;49.232;9.222;2023-05-02T05:16:04;7.17;;;5.87;;
20080;SDS011;10200;49.232;9.222;2023-05-02T05:18:29;7.33;;;6.40;;
20080;SDS011;10200;49.232;9.222;2023-05-02T05:20:55;7.10;;;6.30;;
20080;SDS011;10200;49.232;9.222;2023-05-02T05:23:21;7.23;;;6.30;;
20080;SDS011;10200;49.232;9.222;2023-05-02T05:25:46;7.33;;;6.17;;
20080;SDS011;10200;49.232;9.222;2023-05-02T05:28:12;7.10;;;6.33;;
20080;SDS011;10200;49.232;9.222;2023-05-02T05:30:38;7.40;;;6.63;;
20080;SDS011;10200;49.232;9.222;2023-05-02T05:33:03;7.37;;;5.90;;
20080;SDS011;10200;49.232;9.222;2023-05-02T05:35:29;6.77;;;5.20;;
20080;SDS011;10200;49.232;9.222;2023-05-02T05:37:56;9.33;;;5.80;;
20080;SDS011;10200;49.232;9.222;2023-05-02T05:40:21;6.10;;;5.50;;
20080;SDS011;10200;49.232;9.222;2023-05-02T05:42:47;7.27;;;5.90;;
20080;SDS011;10200;49.232;9.222;2023-05-02T05:45:13;7.07;;;6.30;;
20080;SDS011;10200;49.232;9.222;2023-05-02T05:47:40;7.63;;;5.93;;
20080;SDS011;10200;49.232;9.222;2023-05-02T05:50:06;7.47;;;6.47;;
20080;SDS011;10200;49.232;9.222;2023-05-02T05:52:32;6.90;;;5.93;;
20080;SDS011;10200;49.232;9.222;2023-05-02T05:54:57;6.37;;;5.73;;
20080;SDS011;10200;49.232;9.222;2023-05-02T05:57:23;7.97;;;6.70;;
20080;SDS011;10200;49.232;9.222;2023-05-02T05:59:49;8.50;;;6.57;;
20080;SDS011;10200;49.232;9.222;2023-05-02T06:02:15;8.00;;;6.87;;
20080;SDS011;10200;49.232;9.222;2023-05-02T06:04:41;8.40;;;6.50;;
20080;SDS011;10200;49.232;9.222;2023-05-02T06:07:07;7.53;;;6.60;;
20080;SDS011;10200;49.232;9.222;2023-05-02T06:09:33;7.03;;;6.33;;
20080;SDS011;10200;49.232;9.222;2023-05-02T06:12:00;9.43;;;6.33;;
20080;SDS011;10200;49.232;9.222;2023-05-02T06:14:26;9.57;;;7.17;;
20080;SDS011;10200;49.232;9.222;2023-05-02T06:16:51;9.30;;;6.73;;
20080;SDS011;10200;49.232;9.222;2023-05-02T06:19:17;8.07;;;6.90;;
20080;SDS011;10200;49.232;9.222;2023-05-02T06:21:42;10.30;;;7.03;;
20080;SDS011;10200;49.232;9.222;2023-05-02T06:24:08;8.53;;;6.90;;
20080;SDS011;10200;49.232;9.222;2023-05-02T06:26:34;8.30;;;6.73;;
20080;SDS011;10200;49.232;9.222;2023-05-02T06:28:59;10.23;;;6.80;;
20080;SDS011;10200;49.232;9.222;2023-05-02T06:31:25;9.43;;;7.37;;
20080;SDS011;10200;49.232;9.222;2023-05-02T06:33:50;12.73;;;8.03;;
20080;SDS011;10200;49.232;9.222;2023-05-02T06:36:16;9.17;;;7.47;;
20080;SDS011;10200;49.232;9.222;2023-05-02T06:38:42;9.70;;;7.77;;
20080;SDS011;10200;49.232;9.222;2023-05-02T06:41:11;10.17;;;7.70;;
20080;SDS011;10200;49.232;9.222;2023-05-02T06:43:38;10.30;;;8.43;;
20080;SDS011;10200;49.232;9.222;2023-05-02T06:46:04;10.33;;;7.73;;
20080;SDS011;10200;49.232;9.222;2023-05-02T06:48:30;12.57;;;8.63;;
20080;SDS011;10200;49.232;9.222;2023-05-02T06:50:56;10.13;;;7.63;;
20080;SDS011;10200;49.232;9.222;2023-05-02T06:53:21;10.00;;;7.97;;
20080;SDS011;10200;49.232;9.222;2023-05-02T06:55:47;9.47;;;8.30;;
20080;SDS011;10200;49.232;9.222;2023-05-02T06:58:13;11.03;;;8.47;;
20080;SDS011;10200;49.232;9.222;2023-05-02T07:00:38;10.23;;;8.87;;
20080;SDS011;10200;49.232;9.222;2023-05-02T07:03:04;9.73;;;8.57;;
20080;SDS011;10200;49.232;9.222;2023-05-02T07:05:30;11.83;;;8.03;;
20080;SDS011;10200;49.232;9.222;2023-05-02T07:07:56;13.23;;;8.67;;
20080;SDS011;10200;49.232;9.222;2023-05-02T07:10:21;18.93;;;9.13;;
20080;SDS011;10200;49.232;9.222;2023-05-02T07:12:47;12.27;;;9.53;;
20080;SDS011;10200;49.232;9.222;2023-05-02T07:15:12;10.73;;;8.77;;
20080;SDS011;10200;49.232;9.222;2023-05-02T07:17:40;9.73;;;8.20;;
20080;SDS011;10200;49.232;9.222;2023-05-02T07:20:06;11.13;;;8.67;;
20080;SDS011;10200;49.232;9.222;2023-05-02T07:22:32;11.17;;;8.53;;
20080;SDS011;10200;49.232;9.222;2023-05-02T07:24:59;9.13;;;7.87;;
20080;SDS011;10200;49.232;9.222;2023-05-02T07:27:25;9.57;;;7.80;;
20080;SDS011;10200;49.232;9.222;2023-05-02T07:29:51;11.30;;;8.83;;
20080;SDS011;10200;49.232;9.222;2023-05-02T07:32:16;10.23;;;8.40;;
20080;SDS011;10200;49.232;9.222;2023-05-02T07:34:42;12.03;;;8.80;;
20080;SDS011;10200;49.232;9.222;2023-05-02T07:37:08;11.17;;;8.77;;
20080;SDS011;10200;49.232;9.222;2023-05-02T07:39:34;13.37;;;9.33;;
20080;SDS011;10200;49.232;9.222;2023-05-02T07:41:59;11.63;;;9.23;;
20080;SDS011;10200;49.232;9.222;2023-05-02T07:44:25;10.13;;;8.00;;
20080;SDS011;10200;49.232;9.222;2023-05-02T07:46:51;9.73;;;7.87;;
20080;SDS011;10200;49.232;9.222;2023-05-02T07:49:18;10.27;;;8.30;;
20080;SDS011;10200;49.232;9.222;2023-05-02T07:51:44;9.63;;;7.57;;
20080;SDS011;10200;49.232;9.222;2023-05-02T07:54:16;11.43;;;8.53;;
20080;SDS011;10200;49.232;9.222;2023-05-02T07:56:43;12.13;;;7.90;;
20080;SDS011;10200;49.232;9.222;2023-05-02T07:59:08;11.93;;;8.60;;
20080;SDS011;10200;49.232;9.222;2023-05-02T08:01:35;10.37;;;8.23;;
20080;SDS011;10200;49.232;9.222;2023-05-02T08:04:01;9.93;;;8.00;;
20080;SDS011;10200;49.232;9.222;2023-05-02T08:06:26;8.73;;;7.82;;
20080;SDS011;10200;49.232;9.222;2023-05-02T08:08:52;9.05;;;7.88;;
20080;SDS011;10200;49.232;9.222;2023-05-02T08:11:18;9.00;;;7.65;;
20080;SDS011;10200;49.232;9.222;2023-05-02T08:13:46;9.15;;;7.28;;
20080;SDS011;10200;49.232;9.222;2023-05-02T08:16:11;9.75;;;7.78;;
20080;SDS011;10200;49.232;9.222;2023-05-02T08:18:37;7.82;;;6.85;;
20080;SDS011;10200;49.232;9.222;2023-05-02T08:21:03;11.75;;;7.55;;
20080;SDS011;10200;49.232;9.222;2023-05-02T08:23:29;10.68;;;7.63;;
20080;SDS011;10200;49.232;9.222;2023-05-02T08:25:55;8.52;;;7.07;;
20080;SDS011;10200;49.232;9.222;2023-05-02T08:28:20;9.73;;;7.47;;
20080;SDS011;10200;49.232;9.222;2023-05-02T08:30:46;9.88;;;7.88;;
20080;SDS011;10200;49.232;9.222;2023-05-02T08:33:13;9.77;;;7.72;;
20080;SDS011;10200;49.232;9.222;2023-05-02T08:35:38;8.20;;;7.03;;
20080;SDS011;10200;49.232;9.222;2023-05-02T08:38:04;8.10;;;7.30;;
20080;SDS011;10200;49.232;9.222;2023-05-02T08:40:34;9.15;;;7.47;;
20080;SDS011;10200;49.232;9.222;2023-05-02T08:43:01;10.43;;;8.55;;
20080;SDS011;10200;49.232;9.222;2023-05-02T08:45:29;10.57;;;7.50;;
20080;SDS011;10200;49.232;9.222;2023-05-02T08:48:03;8.77;;;7.47;;
20080;SDS011;10200;49.232;9.222;2023-05-02T08:50:36;9.68;;;6.75;;
20080;SDS011;10200;49.232;9.222;2023-05-02T08:53:07;8.77;;;7.68;;
20080;SDS011;10200;49.232;9.222;2023-05-02T08:55:35;7.88;;;6.90;;
20080;SDS011;10200;49.232;9.222;2023-05-02T08:58:04;12.60;;;8.82;;
20080;SDS011;10200;49.232;9.222;2023-05-02T09:00:31;9.50;;;7.43;;
20080;SDS011;10200;49.232;9.222;2023-05-02T09:03:05;9.07;;;7.78;;
20080;SDS011;10200;49.232;9.222;2023-05-02T09:05:32;8.40;;;7.20;;
20080;SDS011;10200;49.232;9.222;2023-05-02T09:08:04;10.07;;;8.27;;
20080;SDS011;10200;49.232;9.222;2023-05-02T09:10:30;9.40;;;7.85;;
20080;SDS011;10200;49.232;9.222;2023-05-02T09:16:02;8.10;;;7.30;;
20080;SDS011;10200;49.232;9.222;2023-05-02T09:18:32;9.10;;;7.68;;
20080;SDS011;10200;49.232;9.222;2023-05-02T09:21:06;10.45;;;8.02;;
20080;SDS011;10200;49.232;9.222;2023-05-02T09:26:09;10.27;;;6.97;;
20080;SDS011;10200;49.232;9.222;2023-05-02T09:28:36;8.57;;;7.53;;
20080;SDS011;10200;49.232;9.222;2023-05-02T09:31:08;9.88;;;8.55;;
20080;SDS011;10200;49.232;9.222;2023-05-02T09:33:35;8.82;;;7.93;;
20080;SDS011;10200;49.232;9.222;2023-05-02T09:36:02;10.25;;;7.30;;
20080;SDS011;10200;49.232;9.222;2023-05-02T09:38:28;11.25;;;7.53;;
20080;SDS011;10200;49.232;9.222;2023-05-02T09:40:54;9.38;;;8.27;;
20080;SDS011;10200;49.232;9.222;2023-05-02T09:43:21;8.38;;;6.72;;
20080;SDS011;10200;49.232;9.222;2023-05-02T09:46:00;17.50;;;7.93;;
20080;SDS011;10200;49.232;9.222;2023-05-02T09:48:28;8.27;;;6.78;;
20080;SDS011;10200;49.232;9.222;2023-05-02T09:50:54;9.23;;;5.90;;
20080;SDS011;10200;49.232;9.222;2023-05-02T09:53:21;10.50;;;7.53;;
20080;SDS011;10200;49.232;9.222;2023-05-02T09:55:51;11.25;;;8.20;;
20080;SDS011;10200;49.232;9.222;2023-05-02T09:58:27;11.80;;;7.93;;
20080;SDS011;10200;49.232;9.222;2023-05-02T10:00:55;11.13;;;7.35;;
20080;SDS011;10200;49.232;9.222;2023-05-02T10:03:22;10.27;;;8.27;;
20080;SDS011;10200;49.232;9.222;2023-05-02T10:05:48;9.02;;;8.10;;
20080;SDS011;10200;49.232;9.222;2023-05-02T10:08:15;10.00;;;7.70;;
20080;SDS011;10200;49.232;9.222;2023-05-02T10:10:56;9.43;;;7.93;;
20080;SDS011;10200;49.232;9.222;2023-05-02T10:13:23;10.07;;;7.50;;
20080;SDS011;10200;49.232;9.222;2023-05-02T10:16:00;11.02;;;8.13;;
20080;SDS011;10200;49.232;9.222;2023-05-02T10:19:10;9.65;;;8.02;;
20080;SDS011;10200;49.232;9.222;2023-05-02T10:21:25;7.53;;;6.78;;
20080;SDS011;10200;49.232;9.222;2023-05-02T10:23:51;8.82;;;7.90;;
20080;SDS011;10200;49.232;9.222;2023-05-02T10:26:18;7.85;;;7.05;;
20080;SDS011;10200;49.232;9.222;2023-05-02T10:28:54;10.77;;;7.72;;
20080;SDS011;10200;49.232;9.222;2023-05-02T10:31:20;8.73;;;7.13;;
20080;SDS011;10200;49.232;9.222;2023-05-02T10:33:49;9.50;;;7.90;;
20080;SDS011;10200;49.232;9.222;2023-05-02T10:36:19;8.88;;;7.63;;
20080;SDS011;10200;49.232;9.222;2023-05-02T10:38:46;8.73;;;7.70;;
20080;SDS011;10200;49.232;9.222;2023-05-02T10:41:24;10.25;;;8.60;;
20080;SDS011;10200;49.232;9.222;2023-05-02T10:43:53;10.43;;;9.05;;
20080;SDS011;10200;49.232;9.222;2023-05-02T10:46:31;9.93;;;8.43;;
20080;SDS011;10200;49.232;9.222;2023-05-02T10:51:31;9.05;;;8.13;;
20080;SDS011;10200;49.232;9.222;2023-05-02T10:59:27;8.52;;;7.60;;
20080;SDS011;10200;49.232;9.222;2023-05-02T11:02:01;10.23;;;9.23;;
20080;SDS011;10200;49.232;9.222;2023-05-02T11:07:29;9.68;;;8.52;;
20080;SDS011;10200;49.232;9.222;2023-05-02T11:12:44;9.93;;;8.25;;
20080;SDS011;10200;49.232;9.222;2023-05-02T11:15:11;9.52;;;7.30;;
20080;SDS011;10200;49.232;9.222;2023-05-02T11:20:30;9.00;;;7.55;;
20080;SDS011;10200;49.232;9.222;2023-05-02T11:22:57;13.32;;;10.85;;
20080;SDS011;10200;49.232;9.222;2023-05-02T11:25:34;12.43;;;10.63;;
20080;SDS011;10200;49.232;9.222;2023-05-02T11:28:01;12.90;;;10.45;;
20080;SDS011;10200;49.232;9.222;2023-05-02T11:30:40;12.52;;;11.15;;
20080;SDS011;10200;49.232;9.222;2023-05-02T11:33:11;17.23;;;12.43;;
20080;SDS011;10200;49.232;9.222;2023-05-02T11:35:41;14.52;;;11.82;;
20080;SDS011;10200;49.232;9.222;2023-05-02T11:38:09;15.05;;;11.88;;
20080;SDS011;10200;49.232;9.222;2023-05-02T11:40:38;15.45;;;11.20;;
20080;SDS011;10200;49.232;9.222;2023-05-02T11:43:14;14.50;;;11.60;;
20080;SDS011;10200;49.232;9.222;2023-05-02T11:45:42;18.38;;;12.95;;
20080;SDS011;10200;49.232;9.222;2023-05-02T11:48:08;15.50;;;13.02;;
20080;SDS011;10200;49.232;9.222;2023-05-02T11:50:43;15.88;;;12.75;;
20080;SDS011;10200;49.232;9.222;2023-05-02T11:53:13;15.38;;;12.52;;
20080;SDS011;10200;49.232;9.222;2023-05-02T11:55:44;17.27;;;12.93;;
20080;SDS011;10200;49.232;9.222;2023-05-02T11:58:13;15.13;;;12.65;;
20080;SDS011;10200;49.232;9.222;2023-05-02T12:00:39;15.65;;;12.20;;
20080;SDS011;10200;49.232;9.222;2023-05-02T12:03:05;16.70;;;10.32;;
20080;SDS011;10200;49.232;9.222;2023-05-02T12:05:31;13.95;;;11.73;;
20080;SDS011;10200;49.232;9.222;2023-05-02T12:07:57;11.43;;;10.18;;
20080;SDS011;10200;49.232;9.222;2023-05-02T12:10:24;12.70;;;10.75;;
20080;SDS011;10200;49.232;9.222;2023-05-02T12:13:04;13.07;;;10.90;;
20080;SDS011;10200;49.232;9.222;2023-05-02T12:15:30;13.00;;;10.63;;
20080;SDS011;10200;49.232;9.222;2023-05-02T12:17:56;15.18;;;11.75;;
20080;SDS011;10200;49.232;9.222;2023-05-02T12:20:22;12.27;;;10.55;;
20080;SDS011;10200;49.232;9.222;2023-05-02T12:22:48;14.32;;;11.00;;
20080;SDS011;10200;49.232;9.222;2023-05-02T12:25:13;17.13;;;10.60;;
20080;SDS011;10200;49.232;9.222;2023-05-02T12:27:39;14.77;;;11.85;;
20080;SDS011;10200;49.232;9.222;2023-05-02T12:30:05;14.07;;;11.07;;
20080;SDS011;10200;49.232;9.222;2023-05-02T12:32:32;15.30;;;12.73;;
20080;SDS011;10200;49.232;9.222;2023-05-02T12:34:59;13.98;;;11.63;;
20080;SDS011;10200;49.232;9.222;2023-05-02T12:37:26;13.35;;;10.43;;
20080;SDS011;10200;49.232;9.222;2023-05-02T12:39:52;10.85;;;9.07;;
20080;SDS011;10200;49.232;9.222;2023-05-02T12:42:24;11.30;;;8.93;;
20080;SDS011;10200;49.232;9.222;2023-05-02T12:44:50;9.90;;;8.32;;
20080;SDS011;10200;49.232;9.222;2023-05-02T12:47:17;8.27;;;6.80;;
20080;SDS011;10200;49.232;9.222;2023-05-02T12:49:50;8.52;;;6.63;;
20080;SDS011;10200;49.232;9.222;2023-05-02T12:52:18;9.50;;;6.13;;
20080;SDS011;10200;49.232;9.222;2023-05-02T12:54:44;6.70;;;5.15;;
20080;SDS011;10200;49.232;9.222;2023-05-02T12:57:23;7.68;;;5.03;;
20080;SDS011;10200;49.232;9.222;2023-05-02T12:59:52;7.90;;;6.65;;
20080;SDS011;10200;49.232;9.222;2023-05-02T13:02:18;6.28;;;5.65;;
20080;SDS011;10200;49.232;9.222;2023-05-02T13:04:45;8.57;;;6.25;;
20080;SDS011;10200;49.232;9.222;2023-05-02T13:07:10;6.72;;;5.78;;
20080;SDS011;10200;49.232;9.222;2023-05-02T13:09:36;7.15;;;6.25;;
20080;SDS011;10200;49.232;9.222;2023-05-02T13:12:02;7.63;;;5.22;;
20080;SDS011;10200;49.232;9.222;2023-05-02T13:14:28;5.93;;;5.13;;
20080;SDS011;10200;49.232;9.222;2023-05-02T13:16:54;7.95;;;6.03;;
20080;SDS011;10200;49.232;9.222;2023-05-02T13:19:20;6.60;;;4.97;;
20080;SDS011;10200;49.232;9.222;2023-05-02T13:21:46;6.25;;;5.15;;
20080;SDS011;10200;49.232;9.222;2023-05-02T13:24:12;5.82;;;5.00;;
20080;SDS011;10200;49.232;9.222;2023-05-02T13:26:39;7.75;;;5.32;;
20080;SDS011;10200;49.232;9.222;2023-05-02T13:29:05;5.32;;;4.80;;
20080;SDS011;10200;49.232;9.222;2023-05-02T13:31:31;7.40;;;5.90;;
20080;SDS011;10200;49.232;9.222;2023-05-02T13:33:56;6.32;;;5.10;;
20080;SDS011;10200;49.232;9.222;2023-05-02T13:36:22;6.82;;;4.47;;
20080;SDS011;10200;49.232;9.222;2023-05-02T13:38:48;7.60;;;5.28;;
20080;SDS011;10200;49.232;9.222;2023-05-02T13:41:14;5.00;;;4.30;;
20080;SDS011;10200;49.232;9.222;2023-05-02T13:43:40;7.82;;;4.82;;
20080;SDS011;10200;49.232;9.222;2023-05-02T13:46:06;7.43;;;5.47;;
20080;SDS011;10200;49.232;9.222;2023-05-02T13:48:31;5.63;;;3.90;;
20080;SDS011;10200;49.232;9.222;2023-05-02T13:50:57;7.78;;;5.65;;
20080;SDS011;10200;49.232;9.222;2023-05-02T13:53:23;7.28;;;4.85;;
20080;SDS011;10200;49.232;9.222;2023-05-02T13:55:48;5.70;;;4.63;;
20080;SDS011;10200;49.232;9.222;2023-05-02T13:58:14;6.57;;;4.95;;
20080;SDS011;10200;49.232;9.222;2023-05-02T14:00:39;7.10;;;5.10;;
20080;SDS011;10200;49.232;9.222;2023-05-02T14:03:05;5.57;;;4.40;;
20080;SDS011;10200;49.232;9.222;2023-05-02T14:05:31;4.65;;;4.20;;
20080;SDS011;10200;49.232;9.222;2023-05-02T14:07:56;4.68;;;3.80;;
20080;SDS011;10200;49.232;9.222;2023-05-02T14:10:22;6.00;;;3.72;;
20080;SDS011;10200;49.232;9.222;2023-05-02T14:12:48;4.88;;;4.28;;
20080;SDS011;10200;49.232;9.222;2023-05-02T14:15:13;4.57;;;4.13;;
20080;SDS011;10200;49.232;9.222;2023-05-02T14:17:39;4.50;;;3.75;;
20080;SDS011;10200;49.232;9.222;2023-05-02T14:20:05;5.43;;;4.68;;
20080;SDS011;10200;49.232;9.222;2023-05-02T14:22:31;5.80;;;4.70;;
20080;SDS011;10200;49.232;9.222;2023-05-02T14:24:57;5.05;;;4.32;;
20080;SDS011;10200;49.232;9.222;2023-05-02T14:27:23;6.25;;;4.55;;
20080;SDS011;10200;49.232;9.222;2023-05-02T14:29:49;5.88;;;4.72;;
20080;SDS011;10200;49.232;9.222;2023-05-02T14:32:15;5.45;;;4.95;;
20080;SDS011;10200;49.232;9.222;2023-05-02T14:34:41;5.80;;;4.57;;
20080;SDS011;10200;49.232;9.222;2023-05-02T14:37:06;6.50;;;4.35;;
20080;SDS011;10200;49.232;9.222;2023-05-02T14:39:35;5.45;;;3.75;;
20080;SDS011;10200;49.232;9.222;2023-05-02T14:42:00;5.25;;;3.47;;
20080;SDS011;10200;49.232;9.222;2023-05-02T14:44:29;7.30;;;5.38;;
20080;SDS011;10200;49.232;9.222;2023-05-02T14:46:55;5.80;;;4.50;;
20080;SDS011;10200;49.232;9.222;2023-05-02T14:49:21;5.25;;;4.40;;
20080;SDS011;10200;49.232;9.222;2023-05-02T14:51:48;5.45;;;4.50;;
20080;SDS011;10200;49.232;9.222;2023-05-02T14:54:14;7.95;;;5.25;;
20080;SDS011;10200;49.232;9.222;2023-05-02T14:56:40;7.68;;;4.53;;
20080;SDS011;10200;49.232;9.222;2023-05-02T14:59:06;7.78;;;4.75;;
20080;SDS011;10200;49.232;9.222;2023-05-02T15:01:32;8.02;;;5.68;;
20080;SDS011;10200;49.232;9.222;2023-05-02T15:03:58;5.93;;;4.57;;
20080;SDS011;10200;49.232;9.222;2023-05-02T15:06:23;6.07;;;4.10;;
20080;SDS011;10200;49.232;9.222;2023-05-02T15:08:52;6.10;;;3.97;;
20080;SDS011;10200;49.232;9.222;2023-05-02T15:11:18;7.45;;;4.65;;
20080;SDS011;10200;49.232;9.222;2023-05-02T15:13:43;6.05;;;4.43;;
20080;SDS011;10200;49.232;9.222;2023-05-02T15:16:09;6.15;;;4.22;;
20080;SDS011;10200;49.232;9.222;2023-05-02T15:18:35;6.75;;;5.05;;
20080;SDS011;10200;49.232;9.222;2023-05-02T15:21:00;7.03;;;4.72;;
20080;SDS011;10200;49.232;9.222;2023-05-02T15:23:26;5.03;;;3.75;;